KFCH/FCH METAR and TAF weather

Enter ICAO airport designator
Station Type Date Time Source
KFCH METAR 2020/01/26 00:55 UTC NOAA

KFCH 260055Z AUTO 17005KT 8SM CLR 16/10 A3012 RMK A01


Station Type Date Time Source
KFCH Decoded METAR 2020/01/26 00:55 UTC NOAA

Fresno-Chandler, CA, United States (KFCH) 36-44N 119-49W
Jan 25, 2020 - 07:55 PM EST / 2020.01.26 0055 UTC
Wind: from the S (170 degrees) at 6 MPH (5 KT):0
Visibility: 8 mile(s):0
Sky conditions: clear
Temperature: 60 F (16 C)
Dew Point: 50 F (10 C)
Relative Humidity: 67%
Pressure (altimeter): 30.12 in. Hg (1019 hPa)
ob: KFCH 260055Z AUTO 17005KT 8SM CLR 16/10 A3012 RMK A01
cycle: 1

Station Type Date Time Source
KFCH TAF UTC NOAA

Error!

Example: see airport list